Terminal Aerodrome Forecast
Issued by NWS

Home | Current Version | Previous Version | Text Only | Print | Product List | Glossary On
Versions: 1 2 3 4 5 6 7 8 9 10 11 12 13 14 15 16 17 18 19 20 21 22 23 24 25 26 27 28 29 30 31 32
000
FTUS43 KAPX 010609 AAA
TAFPLN
TAF AMD
KPLN 010609Z 0106/0206 00000KT 3SM BR SCT002
      TEMPO 0106/0110 3/4SM BR BKN002
     FM011400 23005KT 5SM BR OVC004
     FM011500 24007KT P6SM BKN008
     FM011600 25008KT P6SM SCT015
     FM020100 00000KT 3SM BR SKC=

USA.gov is the U.S. government's official web portal to all federal, state and local government web resources and services.